Dansville, Michigan
Current Conditions -  °F | °C
As of 12:52 PM on Monday 24 Nov 2014 (Local Time) from KTEW Reporting Station
Light Rain Light Rain  
Wind Chill: 41°   Ceiling: 1400
Heat Index: 47°   Visibility: 7mi
Dew Point: 44°   Wind: 17mph
Humidity: 89%   Direction: 220°SW
Pressure: 29.12"   Gusts: 26mph
Location:  42.56°N, 84.3°W
Report Text: KTEW 241752Z AUTO 22015G23KT 170V240 7SM -RA OVC014 09/07 A2912 RMK AO2 T00850068
Loading
Personal Weather Stations






























Interactive Weather Map New forecast layout! Learn more

10-Day Weather Forecast

Advertisements
Track Severe Weather on mobile